createdAt,value
2018-05-08T00:00:23.172Z,4.78
2018-05-08T00:02:51.470Z,4.30
2018-05-08T00:05:19.039Z,5.40
2018-05-08T00:07:46.721Z,5.10
2018-05-08T00:10:14.823Z,4.80
2018-05-08T00:12:43.122Z,5.10
2018-05-08T00:15:11.067Z,4.80
2018-05-08T00:17:40.227Z,4.55
2018-05-08T00:20:07.742Z,4.70
2018-05-08T00:22:35.272Z,4.77
2018-05-08T00:25:03.699Z,5.40
2018-05-08T00:27:31.222Z,4.80
2018-05-08T00:29:58.740Z,4.97
2018-05-08T00:32:26.258Z,4.60
2018-05-08T00:34:53.811Z,4.90
2018-05-08T00:37:21.331Z,5.00
2018-05-08T00:39:48.854Z,4.80
2018-05-08T00:42:16.382Z,4.55
2018-05-08T00:44:44.653Z,4.85
2018-05-08T00:47:13.137Z,4.80
2018-05-08T00:49:41.439Z,4.80
2018-05-08T00:52:09.784Z,4.70
2018-05-08T00:54:49.751Z,4.75
2018-05-08T00:57:18.097Z,4.93
2018-05-08T00:59:45.688Z,5.03
2018-05-08T01:02:13.189Z,4.70
2018-05-08T01:04:40.707Z,4.97
2018-05-08T01:07:09.223Z,4.93
2018-05-08T01:09:36.864Z,4.85
2018-05-08T01:12:05.544Z,5.40
2018-05-08T01:14:33.497Z,5.07
2018-05-08T01:17:01.077Z,5.40
2018-05-08T01:19:28.611Z,4.53
2018-05-08T01:21:56.193Z,5.22
2018-05-08T01:24:23.725Z,5.28
2018-05-08T01:26:51.247Z,5.03
2018-05-08T01:29:18.745Z,4.40
2018-05-08T01:31:47.050Z,4.80
2018-05-08T01:34:14.586Z,5.43
2018-05-08T01:36:42.100Z,5.40
2018-05-08T01:39:09.627Z,5.05
2018-05-08T01:41:37.198Z,4.80
2018-05-08T01:44:04.732Z,4.70
2018-05-08T01:46:32.255Z,5.40
2018-05-08T01:48:59.789Z,4.72
2018-05-08T01:51:27.309Z,5.28
2018-05-08T01:53:55.673Z,5.32
2018-05-08T01:56:23.205Z,4.70
2018-05-08T01:58:50.719Z,4.97
2018-05-08T02:01:18.983Z,5.53
2018-05-08T02:03:47.280Z,5.10
2018-05-08T02:06:14.786Z,5.40
2018-05-08T02:08:42.325Z,4.60
2018-05-08T02:11:09.877Z,5.50
2018-05-08T02:13:37.415Z,5.87
2018-05-08T02:16:04.965Z,5.30
2018-05-08T02:18:33.239Z,5.22
2018-05-08T02:21:01.558Z,4.70
2018-05-08T02:23:29.107Z,5.50
2018-05-08T02:25:56.714Z,5.40
2018-05-08T02:28:24.238Z,5.60
2018-05-08T02:30:51.778Z,5.78
2018-05-08T02:33:19.304Z,5.65
2018-05-08T02:35:46.812Z,5.70
2018-05-08T02:38:14.388Z,5.40
2018-05-08T02:40:41.933Z,5.53
2018-05-08T02:43:09.456Z,6.70
2018-05-08T02:45:37.010Z,5.55
2018-05-08T02:48:04.522Z,6.32
2018-05-08T02:50:33.278Z,5.93
2018-05-08T02:53:01.574Z,6.25
2018-05-08T02:55:29.139Z,5.70
2018-05-08T02:57:56.690Z,6.12
2018-05-08T03:00:24.248Z,5.90
2018-05-08T03:02:51.794Z,5.73
2018-05-08T03:05:19.994Z,6.28
2018-05-08T03:07:47.524Z,6.30
2018-05-08T03:10:15.858Z,6.10
2018-05-08T03:12:44.209Z,5.60
2018-05-08T03:15:11.738Z,6.37
2018-05-08T03:17:41.205Z,6.97
2018-05-08T03:20:08.728Z,5.90
2018-05-08T03:22:36.258Z,6.40
2018-05-08T03:25:03.787Z,5.80
2018-05-08T03:27:31.400Z,6.97
2018-05-08T03:29:58.938Z,7.32
2018-05-08T03:32:27.247Z,6.90
2018-05-08T03:34:54.775Z,6.50
2018-05-08T03:37:23.070Z,6.70
2018-05-08T03:39:50.628Z,6.90
2018-05-08T03:42:18.171Z,6.30
2018-05-08T03:44:45.733Z,7.80
2018-05-08T03:47:14.074Z,6.87
2018-05-08T03:49:41.600Z,6.55
2018-05-08T03:52:09.133Z,7.00
2018-05-08T03:54:37.428Z,5.65
2018-05-08T03:57:04.972Z,7.35
2018-05-08T03:59:32.521Z,6.18
2018-05-08T04:02:12.681Z,6.70
2018-05-08T04:04:53.755Z,6.80
2018-05-08T04:07:33.115Z,6.30
2018-05-08T04:10:00.691Z,7.55
2018-05-08T04:12:28.209Z,7.10
2018-05-08T04:14:55.763Z,6.78
2018-05-08T04:17:24.142Z,7.72
2018-05-08T04:19:51.654Z,7.32
2018-05-08T04:22:19.162Z,7.50
2018-05-08T04:24:46.767Z,6.78
2018-05-08T04:27:14.282Z,6.93
2018-05-08T04:29:41.818Z,7.75
2018-05-08T04:32:09.377Z,7.80
2018-05-08T04:34:36.908Z,7.12
2018-05-08T04:37:04.448Z,8.38
2018-05-08T04:39:31.987Z,8.02
2018-05-08T04:42:00.278Z,8.00
2018-05-08T04:44:28.650Z,7.30
2018-05-08T04:46:56.193Z,7.87
2018-05-08T04:49:23.732Z,7.43
2018-05-08T04:51:51.291Z,7.47
2018-05-08T04:54:18.833Z,7.57
2018-05-08T04:56:46.390Z,7.87
2018-05-08T04:59:13.959Z,7.65
2018-05-08T05:01:41.472Z,8.20
2018-05-08T05:04:11.652Z,7.30
2018-05-08T05:06:39.175Z,7.78
2018-05-08T05:09:06.826Z,7.32
2018-05-08T05:11:35.206Z,8.50
2018-05-08T05:14:02.761Z,7.20
2018-05-08T05:16:31.152Z,7.40
2018-05-08T05:18:58.703Z,7.12
2018-05-08T05:21:26.370Z,6.97
2018-05-08T05:23:53.894Z,7.68
2018-05-08T05:26:21.428Z,7.85
2018-05-08T05:28:49.062Z,8.95
2018-05-08T05:31:16.607Z,8.27
2018-05-08T05:33:44.935Z,8.13
2018-05-08T05:36:12.474Z,8.38
2018-05-08T05:38:40.003Z,9.20
2018-05-08T05:41:08.285Z,9.40
2018-05-08T05:43:35.829Z,11.20
2018-05-08T05:46:03.481Z,9.48
2018-05-08T05:48:30.987Z,9.50
2018-05-08T05:50:59.778Z,8.68
2018-05-08T05:53:27.357Z,8.90
2018-05-08T05:55:54.914Z,8.00
2018-05-08T05:58:22.461Z,9.45
2018-05-08T06:00:49.994Z,8.87
2018-05-08T06:03:17.553Z,10.70
2018-05-08T06:05:45.109Z,8.60
2018-05-08T06:08:13.482Z,8.98
2018-05-08T06:10:41.857Z,8.18
2018-05-08T06:13:10.215Z,8.30
2018-05-08T06:15:37.759Z,10.52
2018-05-08T06:18:05.293Z,13.23
2018-05-08T06:20:32.934Z,8.35
2018-05-08T06:23:01.229Z,8.02
2018-05-08T06:25:29.614Z,8.00
2018-05-08T06:27:57.175Z,7.40
2018-05-08T06:30:24.775Z,7.80
2018-05-08T06:32:53.136Z,8.20
2018-05-08T06:35:21.046Z,8.07
2018-05-08T06:37:48.580Z,7.93
2018-05-08T06:40:16.133Z,7.30
2018-05-08T06:42:43.669Z,8.10
2018-05-08T06:45:11.273Z,8.70
2018-05-08T06:47:38.833Z,7.75
2018-05-08T06:50:06.391Z,7.80
2018-05-08T06:52:33.922Z,7.78
2018-05-08T06:55:01.573Z,7.97
2018-05-08T06:57:29.040Z,8.23
2018-05-08T06:59:56.575Z,7.90
2018-05-08T07:02:24.131Z,6.97
2018-05-08T07:04:51.697Z,8.00
2018-05-08T07:07:19.221Z,7.55
2018-05-08T07:09:46.781Z,6.97
2018-05-08T07:12:15.124Z,9.20
2018-05-08T07:14:43.691Z,7.25
2018-05-08T07:17:11.226Z,7.12
2018-05-08T07:19:38.772Z,7.50
2018-05-08T07:22:06.320Z,7.03
2018-05-08T07:24:33.904Z,5.97
2018-05-08T07:27:02.201Z,8.63
2018-05-08T07:29:29.753Z,6.72
2018-05-08T07:31:57.371Z,6.00
2018-05-08T07:34:24.909Z,7.53
2018-05-08T07:36:52.503Z,6.90
2018-05-08T07:39:20.150Z,6.57
2018-05-08T07:41:47.708Z,6.32
2018-05-08T07:44:15.270Z,6.43
2018-05-08T07:46:42.882Z,5.40
2018-05-08T07:49:10.401Z,4.95
2018-05-08T07:51:37.933Z,5.80
2018-05-08T07:54:05.479Z,5.57
2018-05-08T07:56:33.029Z,5.60
2018-05-08T07:59:00.551Z,5.78
2018-05-08T08:01:28.092Z,5.60
2018-05-08T08:03:55.630Z,5.00
2018-05-08T08:06:23.175Z,4.97
2018-05-08T08:08:50.679Z,4.40
2018-05-08T08:11:18.223Z,4.65
2018-05-08T08:13:45.763Z,4.90
2018-05-08T08:16:13.488Z,5.20
2018-05-08T08:18:41.027Z,5.70
2018-05-08T08:21:08.547Z,9.07
2018-05-08T08:23:36.102Z,7.15
2018-05-08T08:26:03.682Z,4.68
2018-05-08T08:28:31.312Z,6.25
2018-05-08T08:30:58.854Z,4.53
2018-05-08T08:33:26.413Z,5.43
2018-05-08T08:35:53.934Z,4.43
2018-05-08T08:38:21.480Z,3.80
2018-05-08T08:40:49.050Z,4.40
2018-05-08T08:43:16.596Z,4.10
2018-05-08T08:45:44.124Z,4.93
2018-05-08T08:48:11.650Z,4.75
2018-05-08T08:50:39.968Z,4.22
2018-05-08T08:53:07.522Z,5.75
2018-05-08T08:55:35.079Z,4.50
2018-05-08T08:58:02.623Z,2.60
2018-05-08T09:00:30.182Z,3.45
2018-05-08T09:02:58.490Z,3.10
2018-05-08T09:05:26.074Z,3.62
2018-05-08T09:07:54.405Z,3.15
2018-05-08T09:10:22.829Z,3.10
2018-05-08T09:12:51.159Z,3.10
2018-05-08T09:15:19.666Z,3.40
2018-05-08T09:17:47.192Z,4.93
2018-05-08T09:20:15.490Z,2.93
2018-05-08T09:22:43.949Z,3.90
2018-05-08T09:25:11.488Z,3.00
2018-05-08T09:27:39.029Z,3.22
2018-05-08T09:30:06.830Z,2.83
2018-05-08T09:32:35.355Z,2.60
2018-05-08T09:35:02.896Z,3.10
2018-05-08T09:37:30.437Z,3.00
2018-05-08T09:39:58.747Z,2.90
2018-05-08T09:42:26.291Z,3.12
2018-05-08T09:44:53.844Z,2.97
2018-05-08T09:47:21.372Z,3.50
2018-05-08T09:49:48.884Z,3.10
2018-05-08T09:52:17.196Z,2.90
2018-05-08T09:54:44.722Z,2.60
2018-05-08T09:57:12.258Z,8.60
2018-05-08T09:59:39.774Z,2.85
2018-05-08T10:02:07.294Z,3.10
2018-05-08T10:04:34.857Z,3.85
2018-05-08T10:07:02.380Z,3.62
2018-05-08T10:09:30.351Z,3.20
2018-05-08T10:11:57.891Z,3.00
2018-05-08T10:14:25.421Z,3.15
2018-05-08T10:16:52.971Z,3.30
2018-05-08T10:19:20.511Z,2.80
2018-05-08T10:21:48.023Z,3.00
2018-05-08T10:24:15.570Z,2.90
2018-05-08T10:26:43.104Z,2.90
2018-05-08T10:29:10.643Z,3.20
2018-05-08T10:31:38.176Z,2.70
2018-05-08T10:34:05.707Z,3.50
2018-05-08T10:36:33.219Z,3.08
2018-05-08T10:39:01.535Z,3.20
2018-05-08T10:41:29.064Z,2.97
2018-05-08T10:43:57.449Z,2.70
2018-05-08T10:46:24.954Z,2.40
2018-05-08T10:48:53.312Z,2.15
2018-05-08T10:51:20.888Z,2.70
2018-05-08T10:53:48.467Z,2.20
2018-05-08T10:56:15.996Z,2.30
2018-05-08T10:58:43.574Z,2.42
2018-05-08T11:01:11.310Z,2.35
2018-05-08T11:03:38.842Z,2.60
2018-05-08T11:06:07.104Z,2.00
2018-05-08T11:08:34.641Z,2.50
2018-05-08T11:11:02.167Z,2.60
2018-05-08T11:13:29.748Z,2.20
2018-05-08T11:15:57.373Z,2.70
2018-05-08T11:18:24.929Z,2.10
2018-05-08T11:20:52.509Z,2.00
2018-05-08T11:23:20.904Z,2.00
2018-05-08T11:25:48.454Z,2.28
2018-05-08T11:28:16.012Z,2.97
2018-05-08T11:30:43.599Z,2.80
2018-05-08T11:33:11.377Z,2.35
2018-05-08T11:35:39.039Z,3.10
2018-05-08T11:38:06.565Z,2.60
2018-05-08T11:40:34.109Z,2.50
2018-05-08T11:43:01.638Z,3.10
2018-05-08T11:45:29.196Z,2.40
2018-05-08T11:47:56.729Z,4.40
2018-05-08T11:50:24.287Z,2.80
2018-05-08T11:52:51.797Z,2.65
2018-05-08T11:55:19.330Z,3.30
2018-05-08T11:57:46.876Z,2.20
2018-05-08T12:00:14.397Z,3.15
2018-05-08T12:02:41.959Z,2.60
2018-05-08T12:05:10.266Z,2.65
2018-05-08T12:07:37.782Z,3.10
2018-05-08T12:10:05.501Z,2.90
2018-05-08T12:12:33.039Z,2.40
2018-05-08T12:15:00.612Z,3.20
2018-05-08T12:17:28.137Z,2.55
2018-05-08T12:19:55.696Z,2.35
2018-05-08T12:22:23.276Z,2.80
2018-05-08T12:24:50.803Z,2.60
2018-05-08T12:27:18.328Z,2.97
2018-05-08T12:29:45.878Z,3.00
2018-05-08T12:32:13.390Z,2.60
2018-05-08T12:34:40.898Z,2.80
2018-05-08T12:37:08.501Z,2.70
2018-05-08T12:39:36.124Z,3.33
2018-05-08T12:42:03.752Z,2.50
2018-05-08T12:44:31.220Z,2.70
2018-05-08T12:46:58.965Z,3.15
2018-05-08T12:49:26.524Z,2.80
2018-05-08T12:51:54.291Z,3.05
2018-05-08T12:54:21.826Z,2.87
2018-05-08T12:56:50.184Z,3.30
2018-05-08T12:59:18.546Z,2.80
2018-05-08T13:01:46.088Z,2.80
2018-05-08T13:04:13.625Z,2.70
2018-05-08T13:06:41.251Z,3.70
2018-05-08T13:09:08.959Z,2.95
2018-05-08T13:11:36.489Z,2.87
2018-05-08T13:14:04.904Z,3.10
2018-05-08T13:16:33.265Z,2.80
2018-05-08T13:19:00.773Z,2.42
2018-05-08T13:21:28.324Z,3.37
2018-05-08T13:23:55.834Z,2.50
2018-05-08T13:26:23.368Z,3.10
2018-05-08T13:28:50.935Z,3.30
2018-05-08T13:31:18.491Z,2.53
2018-05-08T13:33:46.041Z,2.70
2018-05-08T13:36:13.622Z,2.05
2018-05-08T13:38:41.200Z,2.40
2018-05-08T13:41:08.723Z,2.37
2018-05-08T13:43:36.253Z,2.78
2018-05-08T13:46:03.861Z,2.00
2018-05-08T13:48:31.429Z,2.35
2018-05-08T13:50:59.042Z,2.90
2018-05-08T13:53:26.601Z,2.25
2018-05-08T13:55:54.139Z,3.40
2018-05-08T13:58:21.699Z,2.65
2018-05-08T14:00:49.355Z,2.45
2018-05-08T14:03:16.864Z,3.10
2018-05-08T14:05:44.393Z,2.53
2018-05-08T14:08:11.937Z,2.40
2018-05-08T14:10:39.462Z,2.53
2018-05-08T14:13:06.985Z,2.55
2018-05-08T14:15:34.514Z,2.90
2018-05-08T14:18:03.024Z,3.13
2018-05-08T14:20:30.613Z,2.60
2018-05-08T14:22:58.948Z,3.15
2018-05-08T14:25:26.777Z,2.70
2018-05-08T14:27:54.327Z,3.10
2018-05-08T14:30:21.889Z,2.20
2018-05-08T14:32:50.174Z,2.67
2018-05-08T14:35:18.473Z,2.35
2018-05-08T14:37:46.007Z,2.50
2018-05-08T14:40:13.702Z,2.20
2018-05-08T14:42:41.256Z,2.60
2018-05-08T14:45:08.771Z,2.58
2018-05-08T14:47:36.320Z,3.30
2018-05-08T14:50:03.862Z,4.15
2018-05-08T14:52:31.408Z,2.62
2018-05-08T14:54:58.918Z,2.55
2018-05-08T14:57:27.207Z,2.30
2018-05-08T14:59:55.518Z,2.62
2018-05-08T15:02:23.043Z,2.80
2018-05-08T15:04:51.350Z,3.00
2018-05-08T15:07:18.905Z,2.90
2018-05-08T15:09:46.417Z,2.62
2018-05-08T15:12:13.965Z,4.30
2018-05-08T15:14:42.252Z,2.90
2018-05-08T15:17:09.815Z,2.75
2018-05-08T15:19:37.597Z,2.53
2018-05-08T15:22:05.902Z,2.90
2018-05-08T15:24:34.296Z,2.40
2018-05-08T15:27:01.830Z,2.70
2018-05-08T15:29:30.143Z,2.50
2018-05-08T15:31:58.527Z,2.08
2018-05-08T15:34:26.062Z,2.83
2018-05-08T15:36:53.611Z,3.00
2018-05-08T15:39:21.169Z,2.80
2018-05-08T15:41:49.455Z,3.00
2018-05-08T15:44:16.972Z,3.20
2018-05-08T15:46:44.508Z,3.28
2018-05-08T15:49:12.028Z,3.10
2018-05-08T15:51:39.582Z,3.30
2018-05-08T15:54:07.270Z,2.70
2018-05-08T15:56:34.786Z,2.60
2018-05-08T15:59:03.120Z,3.00
2018-05-08T16:01:30.645Z,2.60
2018-05-08T16:03:58.170Z,2.80
2018-05-08T16:06:25.842Z,3.20
2018-05-08T16:08:53.405Z,2.60
2018-05-08T16:11:21.029Z,2.50
2018-05-08T16:13:48.570Z,2.95
2018-05-08T16:16:16.073Z,2.55
2018-05-08T16:18:43.601Z,2.97
2018-05-08T16:21:11.265Z,3.45
2018-05-08T16:23:38.810Z,2.80
2018-05-08T16:26:06.340Z,2.90
2018-05-08T16:28:33.879Z,3.10
2018-05-08T16:31:01.616Z,2.80
2018-05-08T16:33:30.936Z,2.87
2018-05-08T16:35:58.486Z,3.40
2018-05-08T16:38:26.047Z,2.90
2018-05-08T16:40:53.594Z,3.03
2018-05-08T16:43:21.134Z,3.95
2018-05-08T16:45:48.670Z,2.83
2018-05-08T16:48:16.237Z,2.92
2018-05-08T16:50:43.828Z,3.40
2018-05-08T16:53:11.418Z,3.33
2018-05-08T16:55:38.991Z,2.97
2018-05-08T16:58:07.303Z,2.90
2018-05-08T17:00:34.982Z,3.40
2018-05-08T17:03:02.499Z,2.80
2018-05-08T17:05:30.103Z,3.45
2018-05-08T17:07:58.007Z,2.92
2018-05-08T17:10:25.566Z,2.90
2018-05-08T17:12:54.017Z,3.60
2018-05-08T17:15:22.209Z,3.33
2018-05-08T17:17:49.869Z,3.60
2018-05-08T17:20:18.122Z,3.30
2018-05-08T17:22:45.657Z,3.60
2018-05-08T17:25:14.596Z,3.80
2018-05-08T17:27:42.191Z,3.65
2018-05-08T17:30:11.432Z,2.87
2018-05-08T17:32:38.966Z,3.53
2018-05-08T17:35:09.807Z,3.47
2018-05-08T17:37:40.131Z,4.00
2018-05-08T17:40:17.687Z,4.60
2018-05-08T17:42:46.158Z,3.80
2018-05-08T17:45:13.694Z,4.55
2018-05-08T17:47:41.227Z,3.00
2018-05-08T17:50:08.766Z,4.20
2018-05-08T17:52:36.313Z,4.40
2018-05-08T17:55:05.182Z,5.00
2018-05-08T17:57:33.593Z,5.00
2018-05-08T18:00:01.728Z,3.90
2018-05-08T18:02:29.249Z,4.10
2018-05-08T18:04:57.525Z,4.47
2018-05-08T18:07:25.052Z,4.30
2018-05-08T18:09:52.595Z,4.40
2018-05-08T18:12:20.141Z,3.85
2018-05-08T18:14:47.692Z,4.10
2018-05-08T18:17:15.309Z,4.20
2018-05-08T18:19:42.880Z,4.40
2018-05-08T18:22:10.454Z,4.65
2018-05-08T18:24:38.766Z,4.60
2018-05-08T18:27:06.497Z,4.25
2018-05-08T18:29:34.080Z,4.62
2018-05-08T18:32:02.447Z,4.30
2018-05-08T18:34:34.097Z,4.30
2018-05-08T18:37:03.498Z,5.05
2018-05-08T18:39:33.465Z,4.20
2018-05-08T18:42:01.002Z,4.00
2018-05-08T18:44:28.655Z,4.07
2018-05-08T18:47:05.211Z,4.70
2018-05-08T18:49:32.921Z,4.53
2018-05-08T18:52:00.379Z,4.73
2018-05-08T18:54:27.959Z,5.12
2018-05-08T18:56:55.486Z,4.78
2018-05-08T18:59:23.008Z,4.53
2018-05-08T19:01:51.511Z,4.55
2018-05-08T19:04:19.026Z,16.45
2018-05-08T19:06:46.727Z,8.60
2018-05-08T19:09:14.290Z,11.27
2018-05-08T19:11:42.694Z,6.00
2018-05-08T19:14:10.216Z,5.40
2018-05-08T19:16:37.901Z,5.85
2018-05-08T19:19:11.412Z,6.32
2018-05-08T19:21:39.661Z,6.03
2018-05-08T19:24:13.143Z,6.35
2018-05-08T19:26:40.814Z,6.70
2018-05-08T19:29:14.281Z,4.82
2018-05-08T19:31:41.906Z,4.85
2018-05-08T19:34:09.573Z,5.85
2018-05-08T19:36:42.908Z,5.18
2018-05-08T19:39:11.376Z,5.60
2018-05-08T19:41:39.383Z,6.93
2018-05-08T19:44:07.614Z,7.05
2018-05-08T19:46:35.285Z,6.20
2018-05-08T19:49:03.081Z,6.03
2018-05-08T19:51:31.537Z,4.45
2018-05-08T19:53:59.163Z,5.00
2018-05-08T19:56:27.132Z,4.62
2018-05-08T19:58:54.723Z,4.80
2018-05-08T20:01:23.296Z,4.47
2018-05-08T20:03:50.860Z,4.83
2018-05-08T20:06:18.749Z,5.10
2018-05-08T20:08:46.419Z,5.07
2018-05-08T20:11:13.926Z,5.40
2018-05-08T20:13:42.266Z,4.82
2018-05-08T20:16:10.018Z,5.10
2018-05-08T20:18:37.554Z,4.90
2018-05-08T20:21:06.195Z,4.80
2018-05-08T20:23:35.830Z,5.05
2018-05-08T20:26:04.250Z,4.45
2018-05-08T20:28:32.296Z,4.70
2018-05-08T20:30:59.895Z,5.25
2018-05-08T20:33:28.863Z,5.37
2018-05-08T20:35:58.316Z,5.00
2018-05-08T20:38:26.323Z,5.07
2018-05-08T20:40:53.970Z,4.73
2018-05-08T20:43:21.668Z,4.37
2018-05-08T20:45:54.999Z,4.80
2018-05-08T20:49:18.427Z,5.03
2018-05-08T20:51:49.441Z,10.52
2018-05-08T20:54:20.994Z,4.80
2018-05-08T20:56:55.362Z,4.57
2018-05-08T20:59:23.597Z,4.78
2018-05-08T21:01:52.796Z,6.70
2018-05-08T21:04:20.801Z,5.35
2018-05-08T21:06:49.595Z,4.57
2018-05-08T21:09:18.166Z,5.00
2018-05-08T21:11:46.554Z,5.40
2018-05-08T21:14:14.965Z,5.60
2018-05-08T21:16:42.535Z,4.90
2018-05-08T21:19:10.092Z,4.97
2018-05-08T21:21:38.406Z,4.50
2018-05-08T21:24:06.097Z,5.78
2018-05-08T21:26:33.630Z,6.05
2018-05-08T21:29:01.202Z,5.05
2018-05-08T21:31:28.735Z,4.68
2018-05-08T21:33:56.315Z,8.35
2018-05-08T21:36:23.836Z,6.10
2018-05-08T21:38:53.069Z,5.22
2018-05-08T21:41:21.675Z,4.75
2018-05-08T21:43:49.250Z,4.22
2018-05-08T21:46:16.784Z,5.72
2018-05-08T21:48:44.376Z,5.10
2018-05-08T21:51:11.942Z,4.40
2018-05-08T21:53:40.240Z,3.87
2018-05-08T21:56:07.791Z,4.87
2018-05-08T21:58:35.322Z,4.57
2018-05-08T22:01:02.891Z,4.37
2018-05-08T22:03:31.274Z,7.40
2018-05-08T22:06:01.722Z,8.57
2018-05-08T22:08:30.049Z,4.82
2018-05-08T22:10:58.003Z,4.50
2018-05-08T22:13:25.527Z,5.78
2018-05-08T22:15:53.798Z,3.92
2018-05-08T22:18:21.396Z,4.60
2018-05-08T22:20:48.908Z,4.50
2018-05-08T22:23:16.430Z,4.30
2018-05-08T22:25:43.963Z,4.87
2018-05-08T22:28:12.420Z,3.90
2018-05-08T22:30:40.741Z,22.80
2018-05-08T22:33:08.483Z,23.33
2018-05-08T22:35:36.021Z,6.55
2018-05-08T22:38:03.593Z,5.40
2018-05-08T22:40:31.141Z,5.60
2018-05-08T22:42:59.595Z,5.10
2018-05-08T22:45:27.125Z,4.57
2018-05-08T22:47:54.640Z,19.93
2018-05-08T22:50:22.257Z,4.68
2018-05-08T22:52:49.888Z,5.43
2018-05-08T22:55:17.481Z,5.50
2018-05-08T22:57:45.024Z,5.10
2018-05-08T23:00:12.603Z,4.95
2018-05-08T23:02:40.137Z,5.93
2018-05-08T23:05:07.720Z,10.50
2018-05-08T23:07:35.363Z,5.03
2018-05-08T23:10:03.537Z,4.75
2018-05-08T23:12:31.067Z,4.85
2018-05-08T23:14:58.632Z,4.70
2018-05-08T23:17:26.975Z,4.10
2018-05-08T23:19:54.528Z,4.80
2018-05-08T23:22:22.082Z,4.68
2018-05-08T23:24:49.592Z,4.70
2018-05-08T23:27:17.119Z,4.22
2018-05-08T23:29:44.673Z,4.40
2018-05-08T23:32:12.270Z,4.80
2018-05-08T23:34:39.798Z,4.10
2018-05-08T23:37:07.354Z,4.50
2018-05-08T23:39:34.880Z,4.40
2018-05-08T23:42:02.427Z,4.80
2018-05-08T23:44:29.931Z,4.90
2018-05-08T23:46:57.474Z,4.80
2018-05-08T23:49:25.009Z,4.97
2018-05-08T23:51:52.549Z,4.30
2018-05-08T23:54:20.941Z,4.00
2018-05-08T23:56:48.476Z,4.80
2018-05-08T23:59:16.015Z,5.37
